Terminal Aerodrome Forecast
Issued by NWS

Home | Current Version | Previous Version | Text Only | Print | Product List | Glossary On
Versions: 1 2 3 4 5 6 7 8 9 10 11 12 13 14 15 16 17 18 19 20 21 22 23
000
FTUS45 KLKN 302300
TAFEKO
TAF
KEKO 302320Z 3100/3124 VRB06KT P6SM VCTS BKN100CB
     FM310300 06005KT P6SM VCSH BKN100
     FM310600 VRB04KT P6SM SCT100
     FM312000 VRB05KT P6SM VCTS BKN100CB=

USA.gov is the U.S. government's official web portal to all federal, state and local government web resources and services.